sensor_id;sensor_type;location;lat;lon;timestamp;P1;durP1;ratioP1;P2;durP2;ratioP2
4325;SDS011;58429;49.826;10.880;2023-02-28T00:00:42;11.5;;;9.1;;
4325;SDS011;58429;49.826;10.880;2023-02-28T00:01:42;11.5;;;9.1;;
4325;SDS011;58429;49.826;10.880;2023-02-28T00:02:43;11.5;;;9.1;;
4325;SDS011;58429;49.826;10.880;2023-02-28T00:03:42;11.2;;;9;;
4325;SDS011;58429;49.826;10.880;2023-02-28T00:04:42;11.2;;;9;;
4325;SDS011;58429;49.826;10.880;2023-02-28T00:05:42;11.2;;;9;;
4325;SDS011;58429;49.826;10.880;2023-02-28T00:06:42;13.1;;;9.3;;
4325;SDS011;58429;49.826;10.880;2023-02-28T00:07:42;13.1;;;9.3;;
4325;SDS011;58429;49.826;10.880;2023-02-28T00:08:42;13.1;;;9.3;;
4325;SDS011;58429;49.826;10.880;2023-02-28T00:09:42;11.7;;;8.7;;
4325;SDS011;58429;49.826;10.880;2023-02-28T00:10:42;11.7;;;8.7;;
4325;SDS011;58429;49.826;10.880;2023-02-28T00:11:42;11.7;;;8.7;;
4325;SDS011;58429;49.826;10.880;2023-02-28T00:12:42;12.2;;;8.9;;
4325;SDS011;58429;49.826;10.880;2023-02-28T00:13:44;12.2;;;8.9;;
4325;SDS011;58429;49.826;10.880;2023-02-28T00:14:42;12.2;;;8.9;;
4325;SDS011;58429;49.826;10.880;2023-02-28T00:15:42;10.4;;;8.2;;
4325;SDS011;58429;49.826;10.880;2023-02-28T00:16:42;10.4;;;8.2;;
4325;SDS011;58429;49.826;10.880;2023-02-28T00:17:42;10.4;;;8.2;;
4325;SDS011;58429;49.826;10.880;2023-02-28T00:18:42;9.8;;;8.3;;
4325;SDS011;58429;49.826;10.880;2023-02-28T00:19:42;9.8;;;8.3;;
4325;SDS011;58429;49.826;10.880;2023-02-28T00:20:42;9.8;;;8.3;;
4325;SDS011;58429;49.826;10.880;2023-02-28T00:21:42;10.1;;;7.7;;
4325;SDS011;58429;49.826;10.880;2023-02-28T00:22:43;10.1;;;7.7;;
4325;SDS011;58429;49.826;10.880;2023-02-28T00:23:42;10.1;;;7.7;;
4325;SDS011;58429;49.826;10.880;2023-02-28T00:24:42;9.7;;;8.5;;
4325;SDS011;58429;49.826;10.880;2023-02-28T00:25:42;9.7;;;8.5;;
4325;SDS011;58429;49.826;10.880;2023-02-28T00:26:42;9.7;;;8.5;;
4325;SDS011;58429;49.826;10.880;2023-02-28T00:27:42;9.7;;;8.6;;
4325;SDS011;58429;49.826;10.880;2023-02-28T00:28:42;9.7;;;8.6;;
4325;SDS011;58429;49.826;10.880;2023-02-28T00:29:42;9.7;;;8.6;;
4325;SDS011;58429;49.826;10.880;2023-02-28T00:30:42;9.7;;;8.3;;
4325;SDS011;58429;49.826;10.880;2023-02-28T00:31:42;9.7;;;8.3;;
4325;SDS011;58429;49.826;10.880;2023-02-28T00:32:42;9.7;;;8.3;;
4325;SDS011;58429;49.826;10.880;2023-02-28T00:33:42;8.8;;;7.7;;
4325;SDS011;58429;49.826;10.880;2023-02-28T00:34:42;8.8;;;7.7;;
4325;SDS011;58429;49.826;10.880;2023-02-28T00:35:42;8.8;;;7.7;;
4325;SDS011;58429;49.826;10.880;2023-02-28T00:36:42;10.8;;;8.5;;
4325;SDS011;58429;49.826;10.880;2023-02-28T00:37:42;10.8;;;8.5;;
4325;SDS011;58429;49.826;10.880;2023-02-28T00:38:42;10.8;;;8.5;;
4325;SDS011;58429;49.826;10.880;2023-02-28T00:39:42;11.4;;;8.1;;
4325;SDS011;58429;49.826;10.880;2023-02-28T00:40:42;11.4;;;8.1;;
4325;SDS011;58429;49.826;10.880;2023-02-28T00:41:43;11.4;;;8.1;;
4325;SDS011;58429;49.826;10.880;2023-02-28T00:42:42;10.2;;;8.6;;
4325;SDS011;58429;49.826;10.880;2023-02-28T00:43:42;10.2;;;8.6;;
4325;SDS011;58429;49.826;10.880;2023-02-28T00:44:42;10.2;;;8.6;;
4325;SDS011;58429;49.826;10.880;2023-02-28T00:45:42;9.7;;;8.7;;
4325;SDS011;58429;49.826;10.880;2023-02-28T00:46:42;9.7;;;8.7;;
4325;SDS011;58429;49.826;10.880;2023-02-28T00:47:42;9.7;;;8.7;;
4325;SDS011;58429;49.826;10.880;2023-02-28T00:48:42;9.8;;;8;;
4325;SDS011;58429;49.826;10.880;2023-02-28T00:49:42;9.8;;;8;;
4325;SDS011;58429;49.826;10.880;2023-02-28T00:50:42;9.8;;;8;;
4325;SDS011;58429;49.826;10.880;2023-02-28T00:51:42;10.2;;;8.8;;
4325;SDS011;58429;49.826;10.880;2023-02-28T00:52:42;10.2;;;8.8;;
4325;SDS011;58429;49.826;10.880;2023-02-28T00:53:42;10.2;;;8.8;;
4325;SDS011;58429;49.826;10.880;2023-02-28T00:54:42;10.5;;;8.3;;
4325;SDS011;58429;49.826;10.880;2023-02-28T00:55:42;10.5;;;8.3;;
4325;SDS011;58429;49.826;10.880;2023-02-28T00:56:42;10.5;;;8.3;;
4325;SDS011;58429;49.826;10.880;2023-02-28T00:57:42;10;;;7.6;;
4325;SDS011;58429;49.826;10.880;2023-02-28T00:58:42;10;;;7.6;;
4325;SDS011;58429;49.826;10.880;2023-02-28T00:59:42;10;;;7.6;;
4325;SDS011;58429;49.826;10.880;2023-02-28T01:00:42;10.1;;;8.5;;
4325;SDS011;58429;49.826;10.880;2023-02-28T01:01:43;10.1;;;8.5;;
4325;SDS011;58429;49.826;10.880;2023-02-28T01:02:42;10.1;;;8.5;;
4325;SDS011;58429;49.826;10.880;2023-02-28T01:03:42;10.1;;;8.5;;
4325;SDS011;58429;49.826;10.880;2023-02-28T01:04:42;10.5;;;8.2;;
4325;SDS011;58429;49.826;10.880;2023-02-28T01:05:42;10.5;;;8.2;;
4325;SDS011;58429;49.826;10.880;2023-02-28T01:06:42;10.5;;;8.2;;
4325;SDS011;58429;49.826;10.880;2023-02-28T01:07:42;10;;;8.3;;
4325;SDS011;58429;49.826;10.880;2023-02-28T01:08:42;10;;;8.3;;
4325;SDS011;58429;49.826;10.880;2023-02-28T01:09:42;10;;;8.3;;
4325;SDS011;58429;49.826;10.880;2023-02-28T01:10:42;10.5;;;8.2;;
4325;SDS011;58429;49.826;10.880;2023-02-28T01:11:42;10.5;;;8.2;;
4325;SDS011;58429;49.826;10.880;2023-02-28T01:12:42;10.5;;;8.2;;
4325;SDS011;58429;49.826;10.880;2023-02-28T01:13:42;11.3;;;8.3;;
4325;SDS011;58429;49.826;10.880;2023-02-28T01:14:42;11.3;;;8.3;;
4325;SDS011;58429;49.826;10.880;2023-02-28T01:15:43;11.3;;;8.3;;
4325;SDS011;58429;49.826;10.880;2023-02-28T01:16:42;9.4;;;8.4;;
4325;SDS011;58429;49.826;10.880;2023-02-28T01:17:42;9.4;;;8.4;;
4325;SDS011;58429;49.826;10.880;2023-02-28T01:18:42;9.4;;;8.4;;
4325;SDS011;58429;49.826;10.880;2023-02-28T01:19:42;10.3;;;8.8;;
4325;SDS011;58429;49.826;10.880;2023-02-28T01:20:42;10.3;;;8.8;;
4325;SDS011;58429;49.826;10.880;2023-02-28T01:21:42;10.3;;;8.8;;
4325;SDS011;58429;49.826;10.880;2023-02-28T01:22:42;9.2;;;7.8;;
4325;SDS011;58429;49.826;10.880;2023-02-28T01:23:42;9.2;;;7.8;;
4325;SDS011;58429;49.826;10.880;2023-02-28T01:24:42;9.2;;;7.8;;
4325;SDS011;58429;49.826;10.880;2023-02-28T01:25:42;9.7;;;8.7;;
4325;SDS011;58429;49.826;10.880;2023-02-28T01:26:42;9.7;;;8.7;;
4325;SDS011;58429;49.826;10.880;2023-02-28T01:27:42;9.7;;;8.7;;
4325;SDS011;58429;49.826;10.880;2023-02-28T01:28:42;9.7;;;8.3;;
4325;SDS011;58429;49.826;10.880;2023-02-28T01:29:42;9.7;;;8.3;;
4325;SDS011;58429;49.826;10.880;2023-02-28T01:30:42;9.7;;;8.3;;
4325;SDS011;58429;49.826;10.880;2023-02-28T01:31:42;9.4;;;7.8;;
4325;SDS011;58429;49.826;10.880;2023-02-28T01:32:42;9.4;;;7.8;;
4325;SDS011;58429;49.826;10.880;2023-02-28T01:33:42;9.4;;;7.8;;
4325;SDS011;58429;49.826;10.880;2023-02-28T01:34:42;9.8;;;7.8;;
4325;SDS011;58429;49.826;10.880;2023-02-28T01:35:42;9.8;;;7.8;;
4325;SDS011;58429;49.826;10.880;2023-02-28T01:36:42;9.8;;;7.8;;
4325;SDS011;58429;49.826;10.880;2023-02-28T01:37:42;10.5;;;8.4;;
4325;SDS011;58429;49.826;10.880;2023-02-28T01:38:42;10.5;;;8.4;;
4325;SDS011;58429;49.826;10.880;2023-02-28T01:39:42;10.5;;;8.4;;
4325;SDS011;58429;49.826;10.880;2023-02-28T01:40:42;9.3;;;7.9;;
4325;SDS011;58429;49.826;10.880;2023-02-28T01:41:42;9.3;;;7.9;;
4325;SDS011;58429;49.826;10.880;2023-02-28T01:42:42;9.3;;;7.9;;
4325;SDS011;58429;49.826;10.880;2023-02-28T01:43:59;10.3;;;8.4;;
4325;SDS011;58429;49.826;10.880;2023-02-28T01:45:00;10.3;;;8.4;;
4325;SDS011;58429;49.826;10.880;2023-02-28T01:45:42;10.3;;;8.4;;
4325;SDS011;58429;49.826;10.880;2023-02-28T01:46:42;9.8;;;7.8;;
4325;SDS011;58429;49.826;10.880;2023-02-28T01:47:42;9.8;;;7.8;;
4325;SDS011;58429;49.826;10.880;2023-02-28T01:48:44;9.8;;;7.8;;
4325;SDS011;58429;49.826;10.880;2023-02-28T01:49:42;9.6;;;7.5;;
4325;SDS011;58429;49.826;10.880;2023-02-28T01:50:43;9.6;;;7.5;;
4325;SDS011;58429;49.826;10.880;2023-02-28T01:51:43;9.6;;;7.5;;
4325;SDS011;58429;49.826;10.880;2023-02-28T01:52:42;9;;;7.3;;
4325;SDS011;58429;49.826;10.880;2023-02-28T01:53:44;9;;;7.3;;
4325;SDS011;58429;49.826;10.880;2023-02-28T01:54:42;9;;;7.3;;
4325;SDS011;58429;49.826;10.880;2023-02-28T01:55:42;9.1;;;7;;
4325;SDS011;58429;49.826;10.880;2023-02-28T01:56:43;9.1;;;7;;
4325;SDS011;58429;49.826;10.880;2023-02-28T01:57:43;9.1;;;7;;
4325;SDS011;58429;49.826;10.880;2023-02-28T01:58:42;10.8;;;7.9;;
4325;SDS011;58429;49.826;10.880;2023-02-28T01:59:43;10.8;;;7.9;;
4325;SDS011;58429;49.826;10.880;2023-02-28T02:00:42;10.8;;;7.9;;
4325;SDS011;58429;49.826;10.880;2023-02-28T02:01:42;9.8;;;7.7;;
4325;SDS011;58429;49.826;10.880;2023-02-28T02:02:43;9.8;;;7.7;;
4325;SDS011;58429;49.826;10.880;2023-02-28T02:03:42;9.8;;;7.7;;
4325;SDS011;58429;49.826;10.880;2023-02-28T02:04:44;10.2;;;7.8;;
4325;SDS011;58429;49.826;10.880;2023-02-28T02:05:42;10.2;;;7.8;;
4325;SDS011;58429;49.826;10.880;2023-02-28T02:06:43;10.2;;;7.8;;
4325;SDS011;58429;49.826;10.880;2023-02-28T02:07:42;9.2;;;7.5;;
4325;SDS011;58429;49.826;10.880;2023-02-28T02:08:42;9.2;;;7.5;;
4325;SDS011;58429;49.826;10.880;2023-02-28T02:09:42;9.2;;;7.5;;
4325;SDS011;58429;49.826;10.880;2023-02-28T02:10:43;9.6;;;7.5;;
4325;SDS011;58429;49.826;10.880;2023-02-28T02:11:43;9.6;;;7.5;;
4325;SDS011;58429;49.826;10.880;2023-02-28T02:12:47;9.6;;;7.5;;
4325;SDS011;58429;49.826;10.880;2023-02-28T02:13:47;9.2;;;8;;
4325;SDS011;58429;49.826;10.880;2023-02-28T02:14:45;9.2;;;8;;
4325;SDS011;58429;49.826;10.880;2023-02-28T02:15:44;9.2;;;8;;
4325;SDS011;58429;49.826;10.880;2023-02-28T02:16:46;10.1;;;7.5;;
4325;SDS011;58429;49.826;10.880;2023-02-28T02:17:43;10.1;;;7.5;;
4325;SDS011;58429;49.826;10.880;2023-02-28T02:18:43;10.1;;;7.5;;
4325;SDS011;58429;49.826;10.880;2023-02-28T02:20:48;9.1;;;7.7;;
4325;SDS011;58429;49.826;10.880;2023-02-28T02:20:54;9.1;;;7.7;;
4325;SDS011;58429;49.826;10.880;2023-02-28T02:21:48;9.1;;;7.7;;
4325;SDS011;58429;49.826;10.880;2023-02-28T02:22:48;9;;;7.4;;
4325;SDS011;58429;49.826;10.880;2023-02-28T02:23:56;9;;;7.4;;
4325;SDS011;58429;49.826;10.880;2023-02-28T02:24:48;9;;;7.4;;
4325;SDS011;58429;49.826;10.880;2023-02-28T02:25:43;9.4;;;7.5;;
4325;SDS011;58429;49.826;10.880;2023-02-28T02:28:20;9.4;;;7.5;;
4325;SDS011;58429;49.826;10.880;2023-02-28T02:28:47;8.8;;;7.2;;
4325;SDS011;58429;49.826;10.880;2023-02-28T02:29:47;8.8;;;7.2;;
4325;SDS011;58429;49.826;10.880;2023-02-28T02:30:45;8.8;;;7.2;;
4325;SDS011;58429;49.826;10.880;2023-02-28T02:31:52;9.2;;;7;;
4325;SDS011;58429;49.826;10.880;2023-02-28T02:32:46;9.2;;;7;;
4325;SDS011;58429;49.826;10.880;2023-02-28T02:34:20;9.2;;;7;;
4325;SDS011;58429;49.826;10.880;2023-02-28T02:34:45;9.6;;;7.6;;
4325;SDS011;58429;49.826;10.880;2023-02-28T02:35:43;9.6;;;7.6;;
4325;SDS011;58429;49.826;10.880;2023-02-28T02:36:44;9.6;;;7.6;;
4325;SDS011;58429;49.826;10.880;2023-02-28T02:37:43;10.2;;;7.9;;
4325;SDS011;58429;49.826;10.880;2023-02-28T02:38:44;10.2;;;7.9;;
4325;SDS011;58429;49.826;10.880;2023-02-28T02:39:44;10.2;;;7.9;;
4325;SDS011;58429;49.826;10.880;2023-02-28T02:40:43;10.4;;;7.6;;
4325;SDS011;58429;49.826;10.880;2023-02-28T02:41:45;10.4;;;7.6;;
4325;SDS011;58429;49.826;10.880;2023-02-28T02:42:44;10.4;;;7.6;;
4325;SDS011;58429;49.826;10.880;2023-02-28T02:43:44;8.3;;;7.3;;
4325;SDS011;58429;49.826;10.880;2023-02-28T02:44:43;8.3;;;7.3;;
4325;SDS011;58429;49.826;10.880;2023-02-28T02:45:43;8.3;;;7.3;;
4325;SDS011;58429;49.826;10.880;2023-02-28T02:46:43;8.3;;;7.3;;
4325;SDS011;58429;49.826;10.880;2023-02-28T02:47:42;10.1;;;7.8;;
4325;SDS011;58429;49.826;10.880;2023-02-28T02:48:42;10.1;;;7.8;;
4325;SDS011;58429;49.826;10.880;2023-02-28T02:49:43;10.1;;;7.8;;
4325;SDS011;58429;49.826;10.880;2023-02-28T02:50:43;9.3;;;8;;
4325;SDS011;58429;49.826;10.880;2023-02-28T02:51:42;9.3;;;8;;
4325;SDS011;58429;49.826;10.880;2023-02-28T02:52:44;9.3;;;8;;
4325;SDS011;58429;49.826;10.880;2023-02-28T02:53:44;8.8;;;6.8;;
4325;SDS011;58429;49.826;10.880;2023-02-28T02:54:43;8.8;;;6.8;;
4325;SDS011;58429;49.826;10.880;2023-02-28T02:55:43;8.8;;;6.8;;
4325;SDS011;58429;49.826;10.880;2023-02-28T02:56:43;10.2;;;7.9;;
4325;SDS011;58429;49.826;10.880;2023-02-28T02:57:44;10.2;;;7.9;;
4325;SDS011;58429;49.826;10.880;2023-02-28T02:58:42;10.2;;;7.9;;
4325;SDS011;58429;49.826;10.880;2023-02-28T02:59:42;10.5;;;7.7;;
4325;SDS011;58429;49.826;10.880;2023-02-28T03:00:44;10.5;;;7.7;;
4325;SDS011;58429;49.826;10.880;2023-02-28T03:01:42;10.5;;;7.7;;
4325;SDS011;58429;49.826;10.880;2023-02-28T03:02:42;11.1;;;7.7;;
4325;SDS011;58429;49.826;10.880;2023-02-28T03:03:42;11.1;;;7.7;;
4325;SDS011;58429;49.826;10.880;2023-02-28T03:04:43;11.1;;;7.7;;
4325;SDS011;58429;49.826;10.880;2023-02-28T03:05:44;9.6;;;7.4;;
4325;SDS011;58429;49.826;10.880;2023-02-28T03:06:42;9.6;;;7.4;;
4325;SDS011;58429;49.826;10.880;2023-02-28T03:07:42;9.6;;;7.4;;
4325;SDS011;58429;49.826;10.880;2023-02-28T03:08:42;9.5;;;7.2;;
4325;SDS011;58429;49.826;10.880;2023-02-28T03:09:49;9.5;;;7.2;;
4325;SDS011;58429;49.826;10.880;2023-02-28T03:10:42;9.5;;;7.2;;
4325;SDS011;58429;49.826;10.880;2023-02-28T03:11:42;9.2;;;7.4;;
4325;SDS011;58429;49.826;10.880;2023-02-28T03:12:45;9.2;;;7.4;;
4325;SDS011;58429;49.826;10.880;2023-02-28T03:13:46;9.2;;;7.4;;
4325;SDS011;58429;49.826;10.880;2023-02-28T03:14:47;9.3;;;7.5;;
4325;SDS011;58429;49.826;10.880;2023-02-28T03:15:46;9.3;;;7.5;;
4325;SDS011;58429;49.826;10.880;2023-02-28T03:16:49;9.3;;;7.5;;
4325;SDS011;58429;49.826;10.880;2023-02-28T03:17:47;9.9;;;8.5;;
4325;SDS011;58429;49.826;10.880;2023-02-28T03:18:44;9.9;;;8.5;;
4325;SDS011;58429;49.826;10.880;2023-02-28T03:19:45;9.9;;;8.5;;
4325;SDS011;58429;49.826;10.880;2023-02-28T03:20:45;9.8;;;7.9;;
4325;SDS011;58429;49.826;10.880;2023-02-28T03:21:43;9.8;;;7.9;;
4325;SDS011;58429;49.826;10.880;2023-02-28T03:22:45;9.8;;;7.9;;
4325;SDS011;58429;49.826;10.880;2023-02-28T03:23:44;9.8;;;7.5;;
4325;SDS011;58429;49.826;10.880;2023-02-28T03:24:43;9.8;;;7.5;;
4325;SDS011;58429;49.826;10.880;2023-02-28T03:25:46;9.8;;;7.5;;
4325;SDS011;58429;49.826;10.880;2023-02-28T03:26:43;10.7;;;8.2;;
4325;SDS011;58429;49.826;10.880;2023-02-28T03:27:53;10.7;;;8.2;;
4325;SDS011;58429;49.826;10.880;2023-02-28T03:28:43;10.7;;;8.2;;
4325;SDS011;58429;49.826;10.880;2023-02-28T03:29:43;10.2;;;8.4;;
4325;SDS011;58429;49.826;10.880;2023-02-28T03:30:45;10.2;;;8.4;;
4325;SDS011;58429;49.826;10.880;2023-02-28T03:31:44;10.2;;;8.4;;
4325;SDS011;58429;49.826;10.880;2023-02-28T03:32:43;10.8;;;8.7;;
4325;SDS011;58429;49.826;10.880;2023-02-28T03:33:43;10.8;;;8.7;;
4325;SDS011;58429;49.826;10.880;2023-02-28T03:34:43;10.8;;;8.7;;
4325;SDS011;58429;49.826;10.880;2023-02-28T03:35:43;10.7;;;8;;
4325;SDS011;58429;49.826;10.880;2023-02-28T03:36:44;10.7;;;8;;
4325;SDS011;58429;49.826;10.880;2023-02-28T03:37:42;10.7;;;8;;
4325;SDS011;58429;49.826;10.880;2023-02-28T03:38:44;10.8;;;7.8;;
4325;SDS011;58429;49.826;10.880;2023-02-28T03:39:44;10.8;;;7.8;;
4325;SDS011;58429;49.826;10.880;2023-02-28T03:40:44;10.8;;;7.8;;
4325;SDS011;58429;49.826;10.880;2023-02-28T03:41:43;11;;;8.1;;
4325;SDS011;58429;49.826;10.880;2023-02-28T03:42:43;11;;;8.1;;
4325;SDS011;58429;49.826;10.880;2023-02-28T03:43:43;11;;;8.1;;
4325;SDS011;58429;49.826;10.880;2023-02-28T03:44:43;9.7;;;8;;
4325;SDS011;58429;49.826;10.880;2023-02-28T03:45:42;9.7;;;8;;
4325;SDS011;58429;49.826;10.880;2023-02-28T03:46:44;9.7;;;8;;
4325;SDS011;58429;49.826;10.880;2023-02-28T03:47:44;10.6;;;8;;
4325;SDS011;58429;49.826;10.880;2023-02-28T03:48:43;10.6;;;8;;
4325;SDS011;58429;49.826;10.880;2023-02-28T03:49:43;10.6;;;8;;
4325;SDS011;58429;49.826;10.880;2023-02-28T03:50:43;10.2;;;7.7;;
4325;SDS011;58429;49.826;10.880;2023-02-28T03:51:42;10.2;;;7.7;;
4325;SDS011;58429;49.826;10.880;2023-02-28T03:52:44;10.2;;;7.7;;
4325;SDS011;58429;49.826;10.880;2023-02-28T03:53:43;9.9;;;7.5;;
4325;SDS011;58429;49.826;10.880;2023-02-28T03:54:43;9.9;;;7.5;;
4325;SDS011;58429;49.826;10.880;2023-02-28T03:55:44;9.9;;;7.5;;
4325;SDS011;58429;49.826;10.880;2023-02-28T03:56:43;9.8;;;7.9;;
4325;SDS011;58429;49.826;10.880;2023-02-28T03:57:43;9.8;;;7.9;;
4325;SDS011;58429;49.826;10.880;2023-02-28T03:58:44;9.8;;;7.9;;
4325;SDS011;58429;49.826;10.880;2023-02-28T03:59:43;10.6;;;8.3;;
4325;SDS011;58429;49.826;10.880;2023-02-28T04:00:43;10.6;;;8.3;;
4325;SDS011;58429;49.826;10.880;2023-02-28T04:01:43;10.6;;;8.3;;
4325;SDS011;58429;49.826;10.880;2023-02-28T04:02:42;9.2;;;7.5;;
4325;SDS011;58429;49.826;10.880;2023-02-28T04:03:42;9.2;;;7.5;;
4325;SDS011;58429;49.826;10.880;2023-02-28T04:04:42;9.2;;;7.5;;
4325;SDS011;58429;49.826;10.880;2023-02-28T04:05:46;10.4;;;7.6;;
4325;SDS011;58429;49.826;10.880;2023-02-28T04:06:43;10.4;;;7.6;;
4325;SDS011;58429;49.826;10.880;2023-02-28T04:07:42;10.4;;;7.6;;
4325;SDS011;58429;49.826;10.880;2023-02-28T04:08:43;10.4;;;8.3;;
4325;SDS011;58429;49.826;10.880;2023-02-28T04:09:42;10.4;;;8.3;;
4325;SDS011;58429;49.826;10.880;2023-02-28T04:10:43;10.4;;;8.3;;
4325;SDS011;58429;49.826;10.880;2023-02-28T04:11:44;10.3;;;7.6;;
4325;SDS011;58429;49.826;10.880;2023-02-28T04:12:42;10.3;;;7.6;;
4325;SDS011;58429;49.826;10.880;2023-02-28T04:13:42;10.3;;;7.6;;
4325;SDS011;58429;49.826;10.880;2023-02-28T04:14:42;11.2;;;8.3;;
4325;SDS011;58429;49.826;10.880;2023-02-28T04:15:42;11.2;;;8.3;;
4325;SDS011;58429;49.826;10.880;2023-02-28T04:16:42;11.2;;;8.3;;
4325;SDS011;58429;49.826;10.880;2023-02-28T04:17:42;10.9;;;8.3;;
4325;SDS011;58429;49.826;10.880;2023-02-28T04:18:42;10.9;;;8.3;;
4325;SDS011;58429;49.826;10.880;2023-02-28T04:19:42;10.9;;;8.3;;
4325;SDS011;58429;49.826;10.880;2023-02-28T04:20:42;11.1;;;9;;
4325;SDS011;58429;49.826;10.880;2023-02-28T04:21:43;11.1;;;9;;
4325;SDS011;58429;49.826;10.880;2023-02-28T04:22:42;11.1;;;9;;
4325;SDS011;58429;49.826;10.880;2023-02-28T04:23:42;12.1;;;8.4;;
4325;SDS011;58429;49.826;10.880;2023-02-28T04:24:43;12.1;;;8.4;;
4325;SDS011;58429;49.826;10.880;2023-02-28T04:25:42;12.1;;;8.4;;
4325;SDS011;58429;49.826;10.880;2023-02-28T04:26:43;10.9;;;8.5;;
4325;SDS011;58429;49.826;10.880;2023-02-28T04:27:43;10.9;;;8.5;;
4325;SDS011;58429;49.826;10.880;2023-02-28T04:28:42;10.9;;;8.5;;
4325;SDS011;58429;49.826;10.880;2023-02-28T04:29:42;11.6;;;7.5;;
4325;SDS011;58429;49.826;10.880;2023-02-28T04:30:42;11.6;;;7.5;;
4325;SDS011;58429;49.826;10.880;2023-02-28T04:31:42;11.6;;;7.5;;
4325;SDS011;58429;49.826;10.880;2023-02-28T04:32:42;11.6;;;7.5;;
4325;SDS011;58429;49.826;10.880;2023-02-28T04:33:42;11.3;;;8.4;;
4325;SDS011;58429;49.826;10.880;2023-02-28T04:34:42;11.3;;;8.4;;
4325;SDS011;58429;49.826;10.880;2023-02-28T04:35:42;11.3;;;8.4;;
4325;SDS011;58429;49.826;10.880;2023-02-28T04:36:42;11.1;;;8.7;;
4325;SDS011;58429;49.826;10.880;2023-02-28T04:37:42;11.1;;;8.7;;
4325;SDS011;58429;49.826;10.880;2023-02-28T04:38:43;11.1;;;8.7;;
4325;SDS011;58429;49.826;10.880;2023-02-28T04:39:43;10.4;;;8.7;;
4325;SDS011;58429;49.826;10.880;2023-02-28T04:40:43;10.4;;;8.7;;
4325;SDS011;58429;49.826;10.880;2023-02-28T04:41:42;10.4;;;8.7;;
4325;SDS011;58429;49.826;10.880;2023-02-28T04:42:42;11.7;;;8.8;;
4325;SDS011;58429;49.826;10.880;2023-02-28T04:43:42;11.7;;;8.8;;
4325;SDS011;58429;49.826;10.880;2023-02-28T04:44:42;11.7;;;8.8;;
4325;SDS011;58429;49.826;10.880;2023-02-28T04:45:42;12.9;;;9.4;;
4325;SDS011;58429;49.826;10.880;2023-02-28T04:46:43;12.9;;;9.4;;
4325;SDS011;58429;49.826;10.880;2023-02-28T04:47:42;12.9;;;9.4;;
4325;SDS011;58429;49.826;10.880;2023-02-28T04:48:47;17.7;;;12.8;;
4325;SDS011;58429;49.826;10.880;2023-02-28T04:49:42;17.7;;;12.8;;
4325;SDS011;58429;49.826;10.880;2023-02-28T04:50:42;17.7;;;12.8;;
4325;SDS011;58429;49.826;10.880;2023-02-28T04:51:42;15.7;;;10.9;;
4325;SDS011;58429;49.826;10.880;2023-02-28T04:52:42;15.7;;;10.9;;
4325;SDS011;58429;49.826;10.880;2023-02-28T04:53:43;15.7;;;10.9;;
4325;SDS011;58429;49.826;10.880;2023-02-28T04:54:42;12.1;;;9.6;;
4325;SDS011;58429;49.826;10.880;2023-02-28T04:55:42;12.1;;;9.6;;
4325;SDS011;58429;49.826;10.880;2023-02-28T04:56:43;12.1;;;9.6;;
4325;SDS011;58429;49.826;10.880;2023-02-28T04:57:42;11.8;;;9.8;;
4325;SDS011;58429;49.826;10.880;2023-02-28T04:58:43;11.8;;;9.8;;
4325;SDS011;58429;49.826;10.880;2023-02-28T04:59:42;11.8;;;9.8;;
4325;SDS011;58429;49.826;10.880;2023-02-28T05:00:43;13;;;9.5;;
4325;SDS011;58429;49.826;10.880;2023-02-28T05:01:45;13;;;9.5;;
4325;SDS011;58429;49.826;10.880;2023-02-28T05:02:42;13;;;9.5;;
4325;SDS011;58429;49.826;10.880;2023-02-28T05:03:43;12.8;;;9.6;;
4325;SDS011;58429;49.826;10.880;2023-02-28T05:04:42;12.8;;;9.6;;
4325;SDS011;58429;49.826;10.880;2023-02-28T05:05:42;12.8;;;9.6;;
4325;SDS011;58429;49.826;10.880;2023-02-28T05:06:43;10.8;;;9.5;;
4325;SDS011;58429;49.826;10.880;2023-02-28T05:07:43;10.8;;;9.5;;
4325;SDS011;58429;49.826;10.880;2023-02-28T05:08:43;10.8;;;9.5;;
4325;SDS011;58429;49.826;10.880;2023-02-28T05:09:42;12.6;;;10.4;;
4325;SDS011;58429;49.826;10.880;2023-02-28T05:10:42;12.6;;;10.4;;
4325;SDS011;58429;49.826;10.880;2023-02-28T05:11:42;12.6;;;10.4;;
4325;SDS011;58429;49.826;10.880;2023-02-28T05:12:43;12.1;;;9.7;;
4325;SDS011;58429;49.826;10.880;2023-02-28T05:13:43;12.1;;;9.7;;
4325;SDS011;58429;49.826;10.880;2023-02-28T05:14:43;12.1;;;9.7;;
4325;SDS011;58429;49.826;10.880;2023-02-28T05:15:43;11.7;;;9.6;;
4325;SDS011;58429;49.826;10.880;2023-02-28T05:16:43;11.7;;;9.6;;
4325;SDS011;58429;49.826;10.880;2023-02-28T05:17:43;11.7;;;9.6;;
4325;SDS011;58429;49.826;10.880;2023-02-28T05:18:43;11.9;;;9.6;;
4325;SDS011;58429;49.826;10.880;2023-02-28T05:19:43;11.9;;;9.6;;
4325;SDS011;58429;49.826;10.880;2023-02-28T05:20:43;11.9;;;9.6;;
4325;SDS011;58429;49.826;10.880;2023-02-28T05:21:48;11.8;;;9.4;;
4325;SDS011;58429;49.826;10.880;2023-02-28T05:22:43;11.8;;;9.4;;
4325;SDS011;58429;49.826;10.880;2023-02-28T05:23:43;11.8;;;9.4;;
4325;SDS011;58429;49.826;10.880;2023-02-28T05:24:43;13;;;9;;
4325;SDS011;58429;49.826;10.880;2023-02-28T05:25:43;13;;;9;;
4325;SDS011;58429;49.826;10.880;2023-02-28T05:26:43;13;;;9;;
4325;SDS011;58429;49.826;10.880;2023-02-28T05:27:43;11.8;;;9.4;;
4325;SDS011;58429;49.826;10.880;2023-02-28T05:28:43;11.8;;;9.4;;
4325;SDS011;58429;49.826;10.880;2023-02-28T05:29:43;11.8;;;9.4;;
4325;SDS011;58429;49.826;10.880;2023-02-28T05:30:43;12.6;;;9.5;;
4325;SDS011;58429;49.826;10.880;2023-02-28T05:31:43;12.6;;;9.5;;
4325;SDS011;58429;49.826;10.880;2023-02-28T05:32:43;12.6;;;9.5;;
4325;SDS011;58429;49.826;10.880;2023-02-28T05:33:43;13.4;;;9.7;;
4325;SDS011;58429;49.826;10.880;2023-02-28T05:34:43;13.4;;;9.7;;
4325;SDS011;58429;49.826;10.880;2023-02-28T05:35:43;13.4;;;9.7;;
4325;SDS011;58429;49.826;10.880;2023-02-28T05:36:43;13.5;;;10;;
4325;SDS011;58429;49.826;10.880;2023-02-28T05:37:43;13.5;;;10;;
4325;SDS011;58429;49.826;10.880;2023-02-28T05:38:43;13.5;;;10;;
4325;SDS011;58429;49.826;10.880;2023-02-28T05:39:43;11.8;;;9.4;;
4325;SDS011;58429;49.826;10.880;2023-02-28T05:40:43;11.8;;;9.4;;
4325;SDS011;58429;49.826;10.880;2023-02-28T05:41:43;11.8;;;9.4;;
4325;SDS011;58429;49.826;10.880;2023-02-28T05:42:43;10.9;;;9.1;;
4325;SDS011;58429;49.826;10.880;2023-02-28T05:43:43;10.9;;;9.1;;
4325;SDS011;58429;49.826;10.880;2023-02-28T05:44:43;10.9;;;9.1;;
4325;SDS011;58429;49.826;10.880;2023-02-28T05:45:43;11.4;;;8.9;;
4325;SDS011;58429;49.826;10.880;2023-02-28T05:46:43;11.4;;;8.9;;
4325;SDS011;58429;49.826;10.880;2023-02-28T05:47:43;11.4;;;8.9;;
4325;SDS011;58429;49.826;10.880;2023-02-28T05:48:45;13.9;;;8.8;;
4325;SDS011;58429;49.826;10.880;2023-02-28T05:49:43;13.9;;;8.8;;
4325;SDS011;58429;49.826;10.880;2023-02-28T05:50:43;13.9;;;8.8;;
4325;SDS011;58429;49.826;10.880;2023-02-28T05:51:43;11;;;9.2;;
4325;SDS011;58429;49.826;10.880;2023-02-28T05:52:43;11;;;9.2;;
4325;SDS011;58429;49.826;10.880;2023-02-28T05:53:43;11;;;9.2;;
4325;SDS011;58429;49.826;10.880;2023-02-28T05:54:43;11.6;;;9.3;;
4325;SDS011;58429;49.826;10.880;2023-02-28T05:55:43;11.6;;;9.3;;
4325;SDS011;58429;49.826;10.880;2023-02-28T05:56:43;11.6;;;9.3;;
4325;SDS011;58429;49.826;10.880;2023-02-28T05:57:43;12.1;;;9.5;;
4325;SDS011;58429;49.826;10.880;2023-02-28T05:58:43;12.1;;;9.5;;
4325;SDS011;58429;49.826;10.880;2023-02-28T05:59:43;12.1;;;9.5;;
4325;SDS011;58429;49.826;10.880;2023-02-28T06:00:43;14.2;;;9.3;;
4325;SDS011;58429;49.826;10.880;2023-02-28T06:01:43;14.2;;;9.3;;
4325;SDS011;58429;49.826;10.880;2023-02-28T06:02:43;14.2;;;9.3;;
4325;SDS011;58429;49.826;10.880;2023-02-28T06:03:43;12.8;;;9.5;;
4325;SDS011;58429;49.826;10.880;2023-02-28T06:04:43;12.8;;;9.5;;
4325;SDS011;58429;49.826;10.880;2023-02-28T06:05:43;12.8;;;9.5;;
4325;SDS011;58429;49.826;10.880;2023-02-28T06:06:43;12.9;;;9.5;;
4325;SDS011;58429;49.826;10.880;2023-02-28T06:07:43;12.9;;;9.5;;
4325;SDS011;58429;49.826;10.880;2023-02-28T06:08:43;12.9;;;9.5;;
4325;SDS011;58429;49.826;10.880;2023-02-28T06:09:43;12.6;;;9.4;;
4325;SDS011;58429;49.826;10.880;2023-02-28T06:10:43;12.6;;;9.4;;
4325;SDS011;58429;49.826;10.880;2023-02-28T06:11:43;12.6;;;9.4;;